Glen Daniel, West Virginia
Current Conditions -  °F | °C
As of 8:51 AM on Friday 19 Dec 2014 (Local Time) from KBKW Reporting Station
Overcast Overcast  
Wind Chill: 17°   Ceiling: 1200
Heat Index: 24°   Visibility: 10mi
Dew Point: 19°   Wind: 6mph
Humidity: 81%   Direction: 310°NW
Pressure: 30.17"   Gusts: NA
Location:  37.78°N, 81.34°W
Report Text: KBKW 191351Z AUTO 31005KT 10SM OVC012 M04/M07 A3017 RMK AO2 SLP253 T10441072
Loading
Personal Weather Stations






























Interactive Weather Map New forecast layout! Learn more

10-Day Weather Forecast

Advertisements
Track Severe Weather on mobile